Time;durP1;ratioP1;P1;durP2;ratioP2;P2;SDS_P1;SDS_P2;PMS_P1;PMS_P2;Temp;Humidity;BMP_temperature;BMP_pressure;BME280_temperature;BME280_humidity;BME280_pressure;Samples;Min_cycle;Max_cycle;Signal;HPM_P1;HPM_P2
2022/04/17 00:00:52;;;;;;;11.23;6.93;;;;;;;19.69;51.38;100098.81;1756789;81;21184;-59
2022/04/17 00:03:21;;;;;;;12.07;7.10;;;;;;;19.76;51.13;100103.12;1724684;81;21390;-59
2022/04/17 00:05:50;;;;;;;14.73;7.37;;;;;;;19.60;51.44;100104.23;1756941;81;21389;-59
2022/04/17 00:08:19;;;;;;;12.37;7.75;;;;;;;19.39;51.95;100099.73;1756684;81;21631;-64
2022/04/17 00:10:46;;;;;;;10.67;6.67;;;;;;;19.45;51.78;100097.44;1756477;81;21105;-57
2022/04/17 00:13:14;;;;;;;11.70;8.23;;;;;;;19.52;51.29;100096.73;1756582;81;21209;-58
2022/04/17 00:15:41;;;;;;;13.37;7.63;;;;;;;19.57;51.15;100101.28;1756300;81;21101;-57
2022/04/17 00:18:10;;;;;;;11.40;7.77;;;;;;;19.47;51.13;100108.55;1756791;81;21508;-58
2022/04/17 00:20:39;;;;;;;16.43;8.17;;;;;;;19.52;51.23;100111.80;1756193;81;21207;-57
2022/04/17 00:23:06;;;;;;;11.77;7.50;;;;;;;19.44;51.34;100103.25;1756657;81;21566;-59
2022/04/17 00:25:33;;;;;;;9.77;7.03;;;;;;;19.34;51.41;100104.96;1756762;81;21348;-57
2022/04/17 00:27:59;;;;;;;10.50;7.37;;;;;;;19.25;51.38;100099.83;1756384;81;21239;-57
2022/04/17 00:30:27;;;;;;;11.40;7.37;;;;;;;19.25;51.64;100105.11;1756423;81;21397;-60
2022/04/17 00:32:54;;;;;;;8.90;6.77;;;;;;;18.96;52.18;100105.23;1756371;81;21912;-59
2022/04/17 00:35:20;;;;;;;16.43;7.90;;;;;;;18.98;52.35;100099.69;1756624;81;21140;-58
2022/04/17 00:37:47;;;;;;;14.07;7.63;;;;;;;18.88;52.69;100099.83;1756106;81;21169;-58
2022/04/17 00:40:14;;;;;;;9.07;6.73;;;;;;;18.89;52.77;100104.59;1756902;81;21247;-58
2022/04/17 00:42:41;;;;;;;12.97;7.70;;;;;;;18.76;53.70;100107.57;1756303;81;21240;-58
2022/04/17 00:45:09;;;;;;;12.27;7.10;;;;;;;19.06;52.92;100097.45;1756630;81;21704;-59
2022/04/17 00:47:36;;;;;;;11.23;7.17;;;;;;;19.02;52.46;100094.23;1756925;81;21184;-59
2022/04/17 00:50:07;;;;;;;11.00;7.53;;;;;;;18.66;54.20;100098.40;1757022;81;21870;-59
2022/04/17 00:52:33;;;;;;;11.73;6.37;;;;;;;18.61;54.87;100104.13;1744539;81;21892;-59
2022/04/17 00:55:01;;;;;;;12.77;7.67;;;;;;;18.57;56.19;100106.97;1756892;81;21305;-58
2022/04/17 00:57:27;;;;;;;13.33;6.83;;;;;;;18.43;57.24;100104.63;1756786;81;21177;-58
2022/04/17 00:59:55;;;;;;;9.17;7.33;;;;;;;18.47;57.36;100099.67;1757010;81;21273;-57
2022/04/17 01:02:22;;;;;;;12.83;6.60;;;;;;;18.23;58.87;100101.13;1756292;81;21274;-59
2022/04/17 01:04:49;;;;;;;12.13;6.90;;;;;;;18.32;59.89;100088.86;1756366;81;21318;-58
2022/04/17 01:07:16;;;;;;;11.17;6.60;;;;;;;18.58;58.52;100079.00;1756756;81;21124;-59
2022/04/17 01:09:45;;;;;;;13.87;7.27;;;;;;;18.67;57.49;100081.51;1744954;81;21165;-58
2022/04/17 01:12:13;;;;;;;13.73;7.73;;;;;;;18.88;56.59;100090.59;1756574;81;21851;-60
2022/04/17 01:14:40;;;;;;;9.67;6.77;;;;;;;18.85;56.23;100093.70;1755910;81;21262;-58
2022/04/17 01:17:07;;;;;;;11.20;6.87;;;;;;;18.84;55.98;100088.67;1756698;81;22117;-58
2022/04/17 01:19:39;;;;;;;9.97;7.20;;;;;;;18.67;57.17;100077.55;1756716;81;21193;-58
2022/04/17 01:22:11;;;;;;;9.00;6.77;;;;;;;18.76;57.06;100067.96;1757039;81;21542;-58
2022/04/17 01:27:26;;;;;;;8.50;6.27;;;;;;;18.74;56.76;100070.03;1755819;81;20994;-57
2022/04/17 01:29:53;;;;;;;8.97;6.53;;;;;;;18.41;57.06;100072.91;1756777;81;21220;-58
2022/04/17 01:32:20;;;;;;;12.83;6.77;;;;;;;18.61;58.07;100066.65;1755835;81;21301;-61
2022/04/17 01:34:47;;;;;;;13.20;7.17;;;;;;;18.73;56.92;100073.72;1757132;81;21577;-57
2022/04/17 01:37:15;;;;;;;11.20;6.93;;;;;;;18.75;56.58;100083.50;1756618;81;21763;-58
2022/04/17 01:39:42;;;;;;;9.77;6.30;;;;;;;18.54;56.48;100089.77;1756364;81;21241;-59
2022/04/17 01:42:09;;;;;;;11.67;6.67;;;;;;;18.40;58.26;100083.98;1756120;81;21005;-58
2022/04/17 01:44:37;;;;;;;12.97;8.03;;;;;;;18.48;57.70;100086.22;1756840;81;21176;-58
2022/04/17 01:47:04;;;;;;;11.33;6.47;;;;;;;18.56;57.40;100073.67;1756710;81;21820;-57
2022/04/17 01:49:31;;;;;;;8.50;6.50;;;;;;;18.37;57.11;100075.73;1756633;81;21353;-62
2022/04/17 01:51:58;;;;;;;9.83;6.37;;;;;;;18.54;57.49;100067.33;1756671;81;21199;-57
2022/04/17 01:54:25;;;;;;;10.27;6.73;;;;;;;18.41;58.99;100067.63;1755847;81;21233;-57
2022/04/17 01:56:52;;;;;;;14.97;7.60;;;;;;;18.50;58.98;100064.89;1756821;81;21599;-57
2022/04/17 01:59:20;;;;;;;9.30;6.70;;;;;;;18.47;59.15;100066.68;1756313;81;21764;-58
2022/04/17 02:01:48;;;;;;;10.35;6.70;;;;;;;18.55;58.91;100062.32;1756325;81;21332;-58
2022/04/17 02:04:15;;;;;;;11.90;6.37;;;;;;;18.43;59.24;100072.95;1756907;81;21151;-60
2022/04/17 02:06:43;;;;;;;12.30;6.60;;;;;;;18.39;58.59;100077.63;1756003;81;21913;-57
2022/04/17 02:09:14;;;;;;;10.83;7.20;;;;;;;18.21;59.93;100072.05;1756970;81;21229;-57
2022/04/17 02:11:42;;;;;;;9.75;6.83;;;;;;;18.26;60.77;100068.69;1756888;81;21810;-56
2022/04/17 02:14:09;;;;;;;10.77;6.80;;;;;;;18.48;59.57;100064.31;1756963;81;21074;-58
2022/04/17 02:16:38;;;;;;;11.30;6.40;;;;;;;18.63;58.22;100067.19;1756241;81;21219;-58
2022/04/17 02:19:04;;;;;;;14.00;7.97;;;;;;;18.24;60.26;100061.82;1756694;81;21645;-57
2022/04/17 02:21:33;;;;;;;10.27;6.43;;;;;;;18.14;60.99;100061.63;1756739;81;21263;-57
2022/04/17 02:24:02;;;;;;;10.07;7.07;;;;;;;18.24;60.11;100064.98;1756954;81;21204;-58
2022/04/17 02:26:30;;;;;;;8.87;6.13;;;;;;;18.30;59.79;100073.28;1756812;81;21178;-60
2022/04/17 02:28:57;;;;;;;12.63;6.53;;;;;;;18.11;60.39;100075.33;1756180;81;21210;-58
2022/04/17 02:31:24;;;;;;;9.93;7.20;;;;;;;18.28;60.76;100075.34;1756680;81;21582;-59
2022/04/17 02:33:52;;;;;;;11.23;6.93;;;;;;;18.57;59.11;100076.61;1756823;81;21607;-57
2022/04/17 02:36:20;;;;;;;9.90;6.80;;;;;;;18.37;60.89;100077.06;1756605;81;21553;-59
2022/04/17 02:38:47;;;;;;;12.97;6.70;;;;;;;18.44;60.92;100069.79;1756192;81;21306;-59
2022/04/17 02:41:15;;;;;;;10.97;7.63;;;;;;;18.48;60.42;100079.62;1757074;81;21404;-58
2022/04/17 02:43:41;;;;;;;10.43;6.70;;;;;;;18.47;60.82;100075.92;1756370;81;21078;-57
2022/04/17 02:46:08;;;;;;;12.90;8.30;;;;;;;18.65;59.83;100079.64;1757313;81;21212;-58
2022/04/17 02:48:35;;;;;;;8.77;6.40;;;;;;;18.81;59.15;100071.98;1756678;81;21288;-60
2022/04/17 02:51:02;;;;;;;9.40;6.73;;;;;;;18.84;58.63;100080.75;1756457;81;21184;-58
2022/04/17 02:53:32;;;;;;;9.20;6.50;;;;;;;18.85;58.44;100080.50;1756725;81;21234;-58
2022/04/17 02:56:00;;;;;;;10.53;6.97;;;;;;;18.85;58.19;100091.59;1756733;81;21226;-58
2022/04/17 02:58:27;;;;;;;11.70;6.93;;;;;;;18.98;57.60;100083.34;1756765;81;21396;-58
2022/04/17 03:06:25;;;;;;;10.63;6.53;;;;;;;18.31;62.01;100081.98;1756686;81;21118;-67
2022/04/17 03:08:53;;;;;;;11.43;6.90;;;;;;;18.56;60.94;100081.09;1756309;81;21183;-57
2022/04/17 03:11:21;;;;;;;10.63;7.10;;;;;;;18.28;62.08;100085.09;1756870;81;21237;-57
2022/04/17 03:13:52;;;;;;;10.37;6.67;;;;;;;18.08;63.87;100085.02;1757207;81;21172;-57
2022/04/17 03:16:19;;;;;;;9.93;7.53;;;;;;;18.30;63.03;100084.36;1757376;81;21853;-58
2022/04/17 03:18:47;;;;;;;13.70;6.87;;;;;;;18.51;62.35;100083.63;1756318;81;21365;-57
2022/04/17 03:21:14;;;;;;;10.83;7.00;;;;;;;18.70;60.73;100086.34;1756960;81;21320;-58
2022/04/17 03:23:40;;;;;;;11.63;7.87;;;;;;;18.52;62.49;100082.59;1756908;81;21273;-59
2022/04/17 03:26:07;;;;;;;9.90;6.83;;;;;;;18.42;62.19;100088.52;1757072;81;21196;-57
2022/04/17 03:28:35;;;;;;;10.97;6.90;;;;;;;18.84;60.75;100094.75;1757354;81;21058;-57
2022/04/17 03:31:04;;;;;;;11.47;7.27;;;;;;;18.60;61.32;100094.09;1756193;81;22289;-59
2022/04/17 03:33:31;;;;;;;13.03;7.57;;;;;;;18.55;63.53;100096.64;1756718;81;21951;-58
2022/04/17 03:35:59;;;;;;;11.13;7.90;;;;;;;18.80;61.47;100091.52;1756998;81;21228;-62
2022/04/17 03:38:25;;;;;;;12.63;8.40;;;;;;;18.95;60.34;100093.06;1756940;81;21297;-59
2022/04/17 03:40:52;;;;;;;13.27;8.37;;;;;;;18.80;61.31;100090.20;1756166;81;21220;-59
2022/04/17 03:43:22;;;;;;;12.50;7.87;;;;;;;18.74;61.30;100084.02;1756892;81;22273;-61
2022/04/17 03:45:49;;;;;;;11.43;7.73;;;;;;;18.75;61.98;100084.83;1756433;81;21229;-59
2022/04/17 03:48:18;;;;;;;12.23;8.60;;;;;;;19.13;60.15;100079.59;1756688;81;21301;-61
2022/04/17 03:50:45;;;;;;;13.00;9.67;;;;;;;18.90;62.39;100085.05;1744448;81;21215;-60
2022/04/17 03:53:12;;;;;;;11.47;8.53;;;;;;;18.90;61.79;100077.13;1756438;81;21345;-59
2022/04/17 03:55:41;;;;;;;13.73;9.17;;;;;;;19.14;59.92;100079.86;1756621;81;21218;-61
2022/04/17 03:58:09;;;;;;;11.37;8.47;;;;;;;19.27;59.58;100076.58;1756510;81;21343;-57
2022/04/17 04:00:35;;;;;;;14.43;9.10;;;;;;;19.27;60.12;100073.41;1755907;81;21215;-58
2022/04/17 04:03:02;;;;;;;12.30;8.67;;;;;;;19.41;59.75;100077.30;1756800;81;21822;-58
2022/04/17 04:05:29;;;;;;;12.73;9.00;;;;;;;19.45;59.12;100077.61;1734664;81;21784;-57
2022/04/17 04:07:56;;;;;;;14.90;9.47;;;;;;;19.45;59.12;100077.61;1738715;81;21385;-57
2022/04/17 04:10:24;;;;;;;16.30;10.57;;;;;;;19.56;58.35;100081.98;1738721;81;21325;-66
2022/04/17 04:12:51;;;;;;;13.37;9.30;;;;;;;19.59;56.91;100084.66;1737949;81;21428;-61
2022/04/17 04:15:18;;;;;;;13.60;8.93;;;;;;;19.59;56.91;100084.66;1738938;81;22331;-57
2022/04/17 04:17:45;;;;;;;12.13;8.97;;;;;;;19.35;56.95;100090.69;1719532;83;21431;-57
2022/04/17 04:20:13;;;;;;;15.60;10.43;;;;;;;19.48;56.76;100094.31;1718997;83;21468;-59
2022/04/17 04:22:40;;;;;;;14.03;9.83;;;;;;;19.48;56.76;100094.31;1719661;82;21411;-59
2022/04/17 04:25:09;;;;;;;14.07;10.13;;;;;;;19.28;57.04;100098.82;1719997;82;21818;-57
2022/04/17 04:30:22;;;;;;;16.73;10.83;;;;;;;19.35;57.12;100102.59;1719563;82;21487;-57
2022/04/17 04:32:53;;;;;;;14.33;10.33;;;;;;;19.31;57.31;100112.05;1719798;82;21612;-56
2022/04/17 04:35:21;;;;;;;14.80;10.37;;;;;;;19.39;56.78;100109.78;1720134;82;21838;-58
2022/04/17 04:37:49;;;;;;;15.20;10.90;;;;;;;19.52;56.66;100109.16;1720529;82;21323;-57
2022/04/17 04:40:16;;;;;;;14.03;9.77;;;;;;;19.68;55.46;100109.13;1719035;83;21438;-61
2022/04/17 04:42:42;;;;;;;16.00;11.83;;;;;;;19.65;55.07;100120.71;1719448;83;21577;-58
2022/04/17 04:47:55;;;;;;;15.70;10.67;;;;;;;19.85;54.29;100119.65;1719195;83;21850;-59
2022/04/17 04:50:21;;;;;;;14.97;11.13;;;;;;;19.76;53.92;100121.64;1718852;83;21393;-57
2022/04/17 04:52:49;;;;;;;16.60;11.97;;;;;;;19.47;54.76;100124.41;1719153;83;21257;-61
2022/04/17 04:55:16;;;;;;;14.87;10.23;;;;;;;19.57;54.70;100119.80;1719081;83;21407;-58
2022/04/17 04:57:43;;;;;;;15.53;10.27;;;;;;;19.73;54.15;100120.28;1719218;83;21293;-58
2022/04/17 05:00:13;;;;;;;14.70;10.20;;;;;;;19.72;54.42;100122.66;1719066;83;21300;-58
2022/04/17 05:02:40;;;;;;;18.07;13.13;;;;;;;19.93;53.93;100115.23;1719970;82;21266;-56
2022/04/17 05:05:09;;;;;;;15.57;11.30;;;;;;;20.08;53.68;100115.92;1717994;83;21254;-56
2022/04/17 05:07:37;;;;;;;20.80;15.17;;;;;;;19.88;54.08;100119.66;1712763;83;21443;-59
2022/04/17 05:10:07;;;;;;;16.40;11.63;;;;;;;19.88;54.29;100119.66;1712510;83;21661;-58
2022/04/17 05:12:37;;;;;;;17.43;12.03;;;;;;;19.92;53.83;100120.23;1712782;83;21631;-57
2022/04/17 05:15:06;;;;;;;16.57;11.77;;;;;;;20.10;53.09;100112.48;1712935;83;21292;-57
2022/04/17 05:17:33;;;;;;;13.77;10.43;;;;;;;20.17;52.68;100117.06;1712862;83;21405;-57
2022/04/17 05:20:01;;;;;;;18.93;13.80;;;;;;;20.35;51.45;100110.63;1712336;83;21382;-57
2022/04/17 05:22:31;;;;;;;23.43;20.30;;;;;;;20.35;51.45;100110.63;1712748;83;21425;-57
2022/04/17 05:24:58;;;;;;;20.07;14.83;;;;;;;20.44;51.16;100110.95;1712555;83;21355;-57
2022/04/17 05:27:26;;;;;;;17.37;12.53;;;;;;;20.39;51.17;100116.22;1712673;83;21373;-57
2022/04/17 05:29:52;;;;;;;15.23;12.00;;;;;;;20.39;51.17;100116.22;1712626;83;21424;-59
2022/04/17 05:32:19;;;;;;;23.60;17.30;;;;;;;20.24;51.79;100113.43;1712627;83;21208;-64
2022/04/17 05:34:47;;;;;;;25.70;19.83;;;;;;;20.20;52.18;100116.30;1712520;83;22878;-57
2022/04/17 05:37:13;;;;;;;24.07;17.93;;;;;;;20.14;52.55;100116.23;1712569;83;21311;-57
2022/04/17 05:39:41;;;;;;;87.27;78.43;;;;;;;20.19;52.72;100118.13;1700661;83;21399;-56
2022/04/17 05:42:08;;;;;;;26.63;18.73;;;;;;;20.42;52.29;100113.08;1713334;83;21354;-57
2022/04/17 05:44:37;;;;;;;99.43;81.20;;;;;;;20.79;51.64;100109.67;1712406;83;21512;-59
2022/04/17 05:47:04;;;;;;;46.13;39.50;;;;;;;20.91;50.68;100110.31;1712616;83;21373;-58
2022/04/17 05:49:30;;;;;;;46.00;41.13;;;;;;;21.09;50.50;100107.22;1712914;83;21349;-58
2022/04/17 05:51:57;;;;;;;66.60;60.33;;;;;;;21.31;50.46;100115.04;1712953;83;21373;-58
2022/04/17 05:54:25;;;;;;;36.47;31.43;;;;;;;21.31;50.46;100115.04;1712818;83;21452;-59
2022/04/17 05:56:52;;;;;;;24.57;20.33;;;;;;;20.18;53.72;100117.33;1712687;83;21351;-59
2022/04/17 05:59:19;;;;;;;18.43;13.60;;;;;;;20.18;53.72;100117.33;1712583;83;22276;-61
2022/04/17 06:01:47;;;;;;;20.63;13.37;;;;;;;20.87;52.00;100120.62;1712729;83;21759;-60
2022/04/17 06:04:14;;;;;;;16.67;13.20;;;;;;;20.87;52.00;100120.62;1712805;83;21595;-60
2022/04/17 06:06:42;;;;;;;17.63;13.07;;;;;;;20.98;52.00;100127.30;1712753;82;21810;-58
2022/04/17 06:09:10;;;;;;;29.03;26.13;;;;;;;20.85;51.85;100125.89;1712427;83;22197;-59
2022/04/17 06:11:38;;;;;;;260.37;146.70;;;;;;;20.16;54.05;100122.62;1713241;83;22024;-58
2022/04/17 06:14:06;;;;;;;112.20;70.87;;;;;;;20.13;55.11;100121.27;1713019;83;21485;-59
2022/04/17 06:16:34;;;;;;;46.13;30.57;;;;;;;20.23;54.91;100127.69;1712924;83;21744;-58
2022/04/17 06:19:00;;;;;;;67.80;60.63;;;;;;;20.39;54.53;100130.78;1712559;83;22246;-65
2022/04/17 06:21:28;;;;;;;24.87;19.63;;;;;;;20.92;52.70;100133.62;1712822;83;23220;-56
2022/04/17 06:23:55;;;;;;;19.20;12.10;;;;;;;20.32;53.96;100134.15;1713283;83;22216;-58
2022/04/17 06:26:23;;;;;;;17.63;12.87;;;;;;;20.16;54.07;100148.55;1712726;83;21699;-57
2022/04/17 06:28:50;;;;;;;17.07;13.83;;;;;;;20.16;54.07;100148.55;1713018;83;20952;-57
2022/04/17 06:31:16;;;;;;;17.90;13.30;;;;;;;20.27;54.52;100150.79;1711883;83;21798;-59
2022/04/17 06:33:45;;;;;;;15.90;12.37;;;;;;;20.30;54.54;100149.47;1701717;83;21684;-57
2022/04/17 06:36:11;;;;;;;16.90;11.90;;;;;;;20.30;54.62;100156.88;1712701;83;21770;-57
2022/04/17 06:38:38;;;;;;;16.00;11.20;;;;;;;19.86;58.01;100162.77;1712757;83;22215;-58
2022/04/17 06:41:04;;;;;;;15.50;11.80;;;;;;;20.02;58.22;100165.06;1712863;83;21652;-57
2022/04/17 06:43:31;;;;;;;17.77;11.77;;;;;;;20.25;57.06;100166.63;1712189;83;22237;-61
2022/04/17 06:45:59;;;;;;;16.47;11.47;;;;;;;20.31;56.46;100168.30;1712724;83;21793;-58
2022/04/17 06:48:26;;;;;;;14.63;10.70;;;;;;;20.35;56.19;100167.55;1712541;83;21628;-57
2022/04/17 06:50:53;;;;;;;14.47;11.13;;;;;;;20.36;56.11;100168.34;1712723;83;21050;-57
2022/04/17 06:53:20;;;;;;;15.63;11.70;;;;;;;20.36;56.11;100168.34;1713035;83;21008;-58
2022/04/17 06:55:49;;;;;;;15.80;11.20;;;;;;;20.36;57.17;100174.95;1712500;83;21691;-58
2022/04/17 06:58:17;;;;;;;13.33;10.00;;;;;;;20.38;57.32;100178.14;1701354;83;21735;-57
2022/04/17 07:00:44;;;;;;;15.17;12.07;;;;;;;20.49;57.37;100175.89;1706993;83;21999;-59
2022/04/17 07:03:13;;;;;;;15.83;11.37;;;;;;;20.38;57.16;100180.28;1754189;81;21535;-58
2022/04/17 07:05:42;;;;;;;15.23;11.50;;;;;;;20.54;56.77;100183.11;1757563;79;20927;-58
2022/04/17 07:08:09;;;;;;;15.93;11.57;;;;;;;20.85;55.14;100190.80;1774499;80;21954;-57
2022/04/17 07:10:39;;;;;;;14.37;11.30;;;;;;;21.20;53.80;100192.12;1775113;79;21487;-58
2022/04/17 07:13:08;;;;;;;14.23;11.93;;;;;;;21.48;51.82;100190.48;1775216;79;22169;-57
2022/04/17 07:15:36;;;;;;;13.37;10.73;;;;;;;21.57;50.97;100200.88;1773697;80;21051;-63
2022/04/17 07:18:05;;;;;;;14.37;10.20;;;;;;;21.32;51.66;100200.67;1774963;79;20955;-57
2022/04/17 07:20:32;;;;;;;16.23;10.37;;;;;;;21.33;51.59;100193.05;1775334;79;20963;-56
2022/04/17 07:23:00;;;;;;;12.03;9.73;;;;;;;21.53;51.08;100183.88;1775143;79;20951;-59
2022/04/17 07:25:28;;;;;;;14.80;10.73;;;;;;;22.04;49.62;100193.37;1773879;80;21160;-57
2022/04/17 07:27:55;;;;;;;14.53;11.37;;;;;;;22.11;49.04;100194.47;1775099;79;21807;-58
2022/04/17 07:30:26;;;;;;;16.33;13.97;;;;;;;22.47;47.84;100195.39;1775156;79;21016;-58
2022/04/17 07:32:56;;;;;;;15.90;11.53;;;;;;;22.42;47.42;100197.23;1774076;80;21458;-59
2022/04/17 07:35:26;;;;;;;16.40;12.33;;;;;;;22.76;46.88;100193.55;1775187;79;21022;-65
2022/04/17 07:38:00;;;;;;;14.25;11.48;;;;;;;22.95;45.95;100195.18;1774463;80;21379;-57
2022/04/17 07:40:29;;;;;;;12.57;10.10;;;;;;;23.00;45.77;100192.00;1774089;80;20952;-59
2022/04/17 07:42:59;;;;;;;13.93;10.37;;;;;;;23.35;45.32;100185.58;1774729;80;20864;-57
2022/04/17 07:45:26;;;;;;;15.27;11.57;;;;;;;23.42;45.21;100184.77;1773861;80;20900;-59
2022/04/17 07:47:54;;;;;;;13.07;10.20;;;;;;;23.57;44.78;100182.60;1762605;80;21785;-58
2022/04/17 07:50:24;;;;;;;14.17;11.33;;;;;;;24.16;43.30;100179.16;1774282;80;21242;-60
2022/04/17 07:52:52;;;;;;;14.87;11.17;;;;;;;24.45;42.66;100181.41;1774368;80;20924;-60
2022/04/17 07:55:18;;;;;;;15.30;10.73;;;;;;;24.70;41.63;100176.96;1774998;79;20891;-67
2022/04/17 08:00:46;;;;;;;14.80;11.07;;;;;;;24.44;42.42;100169.17;1774227;80;21473;-58
2022/04/17 08:05:58;;;;;;;13.50;10.50;;;;;;;24.93;41.28;100168.25;1774897;79;21121;-57
2022/04/17 08:08:26;;;;;;;17.67;11.23;;;;;;;25.04;41.11;100173.48;1779735;79;20943;-61
2022/04/17 08:10:53;;;;;;;14.77;10.80;;;;;;;25.11;40.28;100179.31;1775041;79;21450;-57
2022/04/17 08:13:21;;;;;;;12.80;11.10;;;;;;;25.02;40.44;100181.77;1774981;79;20988;-60
2022/04/17 08:15:52;;;;;;;16.07;10.03;;;;;;;25.11;40.11;100180.10;1774532;80;21160;-59
2022/04/17 08:18:20;;;;;;;13.20;11.28;;;;;;;25.08;40.07;100174.50;1774775;79;21046;-63
2022/04/17 08:20:47;;;;;;;14.83;10.70;;;;;;;24.71;40.11;100179.36;1775487;79;21440;-57
2022/04/17 08:23:15;;;;;;;13.67;10.40;;;;;;;24.72;40.16;100180.95;1774235;80;20948;-57
2022/04/17 08:25:43;;;;;;;14.03;10.87;;;;;;;24.61;40.20;100184.77;1774211;80;21043;-57
2022/04/17 08:28:09;;;;;;;15.43;10.97;;;;;;;24.73;39.83;100189.20;1774784;80;21193;-58
2022/04/17 08:30:37;;;;;;;13.67;10.50;;;;;;;24.45;40.35;100185.95;1773450;80;21008;-58
2022/04/17 08:33:06;;;;;;;15.10;11.30;;;;;;;24.56;40.13;100183.48;1774709;80;21031;-57
2022/04/17 08:35:33;;;;;;;15.10;10.90;;;;;;;24.78;40.28;100183.59;1776012;79;21441;-57
2022/04/17 08:38:03;;;;;;;14.10;11.60;;;;;;;24.93;40.00;100174.12;1774200;80;21038;-59
2022/04/17 08:40:30;;;;;;;15.70;11.40;;;;;;;24.33;40.86;100174.28;1774055;79;21147;-58
2022/04/17 08:42:57;;;;;;;11.87;9.77;;;;;;;24.11;41.33;100167.22;1774383;80;21399;-57
2022/04/17 08:45:26;;;;;;;16.97;11.37;;;;;;;24.01;41.14;100163.52;1774399;80;20916;-58
2022/04/17 08:47:54;;;;;;;13.47;10.43;;;;;;;24.03;40.84;100153.41;1774599;80;20904;-58
2022/04/17 08:50:21;;;;;;;15.23;11.93;;;;;;;23.40;41.86;100150.44;1774404;80;20947;-61
2022/04/17 08:52:50;;;;;;;17.07;12.57;;;;;;;23.39;42.08;100146.19;1774180;80;22087;-57
2022/04/17 08:55:17;;;;;;;16.10;12.50;;;;;;;23.05;42.54;100144.13;1753889;80;20903;-58
2022/04/17 08:57:44;;;;;;;15.67;10.77;;;;;;;23.12;42.79;100141.20;1774596;80;21496;-58
2022/04/17 09:00:14;;;;;;;18.77;14.30;;;;;;;22.96;43.33;100144.96;1774334;80;20865;-58
2022/04/17 09:02:42;;;;;;;23.53;19.37;;;;;;;23.11;43.04;100146.77;1775332;79;20980;-57
2022/04/17 09:05:12;;;;;;;14.67;12.30;;;;;;;23.00;43.05;100149.47;1775356;79;21494;-57
2022/04/17 09:07:50;;;;;;;18.17;10.77;;;;;;;23.25;42.81;100153.92;1775144;79;21023;-58
2022/04/17 09:10:31;;;;;;;13.90;11.03;;;;;;;23.28;42.73;100152.06;1773346;79;20959;-66
2022/04/17 09:13:04;;;;;;;12.27;10.13;;;;;;;23.28;42.66;100150.73;1734677;79;21603;-57
2022/04/17 09:15:35;;;;;;;12.93;10.35;;;;;;;23.45;42.43;100153.10;1775537;79;20964;-57
2022/04/17 09:18:09;;;;;;;13.90;11.30;;;;;;;23.78;41.95;100150.86;1774787;79;22290;-64
2022/04/17 09:20:37;;;;;;;14.20;11.67;;;;;;;23.82;41.72;100157.23;1779378;79;20984;-57
2022/04/17 09:23:04;;;;;;;14.57;11.30;;;;;;;24.02;41.62;100161.14;1774235;80;21011;-57
2022/04/17 09:25:31;;;;;;;12.33;10.27;;;;;;;23.86;41.53;100159.61;1774086;80;20951;-58
2022/04/17 09:28:05;;;;;;;11.70;9.67;;;;;;;24.09;41.20;100161.36;1774175;80;20959;-58
2022/04/17 09:30:34;;;;;;;14.90;10.50;;;;;;;23.97;41.25;100156.36;1774651;80;22170;-57
2022/04/17 09:33:09;;;;;;;15.25;11.73;;;;;;;23.79;41.48;100153.81;1774786;80;21522;-58
2022/04/17 09:35:36;;;;;;;14.10;11.67;;;;;;;23.87;41.14;100146.58;1776241;79;21070;-66
2022/04/17 09:38:06;;;;;;;14.03;11.70;;;;;;;24.06;40.82;100144.63;1774053;80;20920;-57
2022/04/17 09:40:36;;;;;;;16.60;11.27;;;;;;;24.11;40.95;100144.58;1776680;79;20912;-57
2022/04/17 09:43:14;;;;;;;15.00;11.63;;;;;;;24.27;40.82;100134.88;1774772;80;21175;-57
2022/04/17 09:46:05;;;;;;;16.17;11.57;;;;;;;24.24;40.95;100134.63;1775447;79;21007;-59
2022/04/17 09:48:41;;;;;;;14.00;11.20;;;;;;;24.44;40.63;100126.55;1774704;79;21018;-57
2022/04/17 09:51:25;;;;;;;13.03;10.57;;;;;;;24.56;40.47;100126.19;1774121;80;20904;-66
2022/04/17 09:54:06;;;;;;;14.63;11.30;;;;;;;24.30;40.79;100123.42;1775451;79;21632;-58
2022/04/17 09:56:37;;;;;;;11.45;10.20;;;;;;;24.76;40.23;100127.88;1776161;79;22304;-58
2022/04/17 09:59:18;;;;;;;12.07;10.10;;;;;;;25.11;39.40;100126.75;1774476;79;21015;-57
2022/04/17 10:01:47;;;;;;;13.50;10.90;;;;;;;25.18;39.49;100133.09;1774195;80;20944;-59
2022/04/17 10:04:21;;;;;;;13.83;11.27;;;;;;;25.34;39.09;100143.84;1774470;80;20916;-58
2022/04/17 10:06:51;;;;;;;14.30;11.27;;;;;;;24.92;39.46;100151.98;1764293;79;21006;-57
2022/04/17 10:09:20;;;;;;;14.70;10.43;;;;;;;25.20;38.93;100150.96;1774316;80;21014;-57
2022/04/17 10:11:51;;;;;;;12.30;10.20;;;;;;;24.87;39.02;100154.70;1775019;79;21397;-58
2022/04/17 10:14:20;;;;;;;19.90;11.80;;;;;;;25.10;38.61;100159.05;1774105;80;20940;-66
2022/04/17 10:16:48;;;;;;;13.47;9.73;;;;;;;25.00;38.82;100155.39;1774023;80;21394;-57
2022/04/17 10:19:24;;;;;;;15.17;12.13;;;;;;;25.02;38.73;100156.98;1775034;79;21015;-59
2022/04/17 10:21:52;;;;;;;15.73;11.50;;;;;;;24.88;38.97;100157.62;1775121;79;20947;-57
2022/04/17 10:24:21;;;;;;;14.10;10.63;;;;;;;25.12;38.56;100158.25;1774704;79;20856;-68
2022/04/17 10:26:53;;;;;;;15.53;11.13;;;;;;;24.98;38.92;100152.74;1763587;79;21015;-57
2022/04/17 10:29:41;;;;;;;14.20;10.93;;;;;;;25.28;38.76;100154.34;1774920;79;21015;-60
2022/04/17 10:32:36;;;;;;;15.17;11.20;;;;;;;25.42;38.41;100151.77;1774800;79;21493;-58
2022/04/17 10:35:32;;;;;;;13.00;11.60;;;;;;;25.24;38.29;100152.77;1774733;80;21334;-58
2022/04/17 10:38:24;;;;;;;14.57;12.17;;;;;;;24.97;38.61;100148.49;1767287;79;21009;-57
2022/04/17 10:40:59;;;;;;;14.07;11.53;;;;;;;24.82;38.96;100141.97;1774175;80;20927;-66
2022/04/17 10:43:36;;;;;;;17.63;11.13;;;;;;;24.99;38.73;100136.98;1774518;79;21391;-57
2022/04/17 10:46:10;;;;;;;15.20;13.03;;;;;;;25.09;38.70;100132.89;1771228;80;21496;-58
2022/04/17 10:48:52;;;;;;;15.23;11.53;;;;;;;25.11;38.83;100132.09;1775387;79;21090;-58
2022/04/17 10:51:22;;;;;;;12.77;11.37;;;;;;;25.22;38.57;100130.12;1776007;79;21524;-59
2022/04/17 10:54:13;;;;;;;12.97;11.37;;;;;;;25.28;38.41;100130.33;1774663;80;21050;-57
2022/04/17 10:56:55;;;;;;;12.23;10.93;;;;;;;25.00;38.73;100135.39;1774194;80;20964;-57
2022/04/17 10:59:28;;;;;;;13.25;11.40;;;;;;;24.87;39.30;100140.58;1775458;79;21086;-58
2022/04/17 11:02:10;;;;;;;13.53;11.53;;;;;;;24.70;39.34;100134.31;1774850;79;21116;-57
2022/04/17 11:04:40;;;;;;;13.05;10.72;;;;;;;24.97;39.10;100139.16;1774192;80;20980;-57
2022/04/17 11:07:13;;;;;;;12.73;10.95;;;;;;;25.04;38.68;100128.14;1771234;79;21057;-57
2022/04/17 11:09:44;;;;;;;16.33;11.73;;;;;;;25.03;38.74;100127.34;1760974;81;21013;-57
2022/04/17 11:12:23;;;;;;;13.88;11.10;;;;;;;24.84;38.94;100129.92;1762315;81;21030;-57
2022/04/17 11:15:06;;;;;;;13.83;10.67;;;;;;;25.03;38.54;100130.56;1762021;81;20970;-56
2022/04/17 11:17:34;;;;;;;18.00;11.33;;;;;;;24.95;38.87;100126.09;1759773;81;21461;-56
2022/04/17 11:20:02;;;;;;;12.07;10.70;;;;;;;25.07;38.88;100123.58;1732172;81;21128;-57
2022/04/17 11:22:33;;;;;;;11.77;10.20;;;;;;;25.31;38.86;100125.77;1762206;81;21017;-58
2022/04/17 11:25:06;;;;;;;14.07;10.70;;;;;;;25.50;38.31;100118.34;1762505;81;20955;-61
2022/04/17 11:27:47;;;;;;;12.80;11.17;;;;;;;25.48;38.22;100116.74;1761696;81;21823;-57
2022/04/17 11:30:20;;;;;;;12.53;10.87;;;;;;;25.50;38.01;100122.35;1757629;81;20993;-57
2022/04/17 11:32:49;;;;;;;14.73;11.43;;;;;;;25.59;38.11;100124.63;1749907;81;20997;-66
2022/04/17 11:35:23;;;;;;;22.57;10.57;;;;;;;25.88;38.01;100119.22;1762443;81;21809;-58
2022/04/17 11:38:07;;;;;;;14.23;12.27;;;;;;;25.88;38.01;100119.22;1751579;81;21424;-57
2022/04/17 11:40:37;;;;;;;13.73;10.90;;;;;;;26.01;37.33;100119.82;1761833;81;21302;-59